sensor_id;sensor_type;location;lat;lon;timestamp;pressure;altitude;pressure_sealevel;temperature;humidity
62928;BME280;51070;52.236;-0.892;2023-03-01T00:00:41;102518.37;;;5.48;95.71
62928;BME280;51070;52.236;-0.892;2023-03-01T00:03:06;102512.88;;;5.50;95.67
62928;BME280;51070;52.236;-0.892;2023-03-01T00:05:32;102511.92;;;5.53;95.91
62928;BME280;51070;52.236;-0.892;2023-03-01T00:07:57;102513.85;;;5.58;95.97
62928;BME280;51070;52.236;-0.892;2023-03-01T00:10:23;102511.98;;;5.60;95.64
62928;BME280;51070;52.236;-0.892;2023-03-01T00:12:48;102511.70;;;5.61;95.48
62928;BME280;51070;52.236;-0.892;2023-03-01T00:15:13;102512.21;;;5.61;95.52
62928;BME280;51070;52.236;-0.892;2023-03-01T00:17:38;102511.70;;;5.59;95.46
62928;BME280;51070;52.236;-0.892;2023-03-01T00:20:04;102517.52;;;5.57;95.51
62928;BME280;51070;52.236;-0.892;2023-03-01T00:22:33;102516.25;;;5.52;95.55
62928;BME280;51070;52.236;-0.892;2023-03-01T00:24:58;102517.76;;;5.46;95.69
62928;BME280;51070;52.236;-0.892;2023-03-01T00:27:23;102515.86;;;5.42;95.89
62928;BME280;51070;52.236;-0.892;2023-03-01T00:29:49;102515.38;;;5.38;96.07
62928;BME280;51070;52.236;-0.892;2023-03-01T00:32:14;102514.31;;;5.38;96.35
62928;BME280;51070;52.236;-0.892;2023-03-01T00:34:39;102517.30;;;5.39;96.44
62928;BME280;51070;52.236;-0.892;2023-03-01T00:37:04;102518.44;;;5.40;96.49
62928;BME280;51070;52.236;-0.892;2023-03-01T00:39:30;102515.55;;;5.41;96.57
62928;BME280;51070;52.236;-0.892;2023-03-01T00:41:55;102517.79;;;5.41;96.44
62928;BME280;51070;52.236;-0.892;2023-03-01T00:44:21;102513.30;;;5.40;96.24
62928;BME280;51070;52.236;-0.892;2023-03-01T00:46:47;102515.27;;;5.37;96.25
62928;BME280;51070;52.236;-0.892;2023-03-01T00:49:12;102514.16;;;5.34;96.30
62928;BME280;51070;52.236;-0.892;2023-03-01T00:51:38;102508.67;;;5.30;96.36
62928;BME280;51070;52.236;-0.892;2023-03-01T00:54:07;102510.61;;;5.26;96.25
62928;BME280;51070;52.236;-0.892;2023-03-01T00:56:33;102509.02;;;5.24;96.46
62928;BME280;51070;52.236;-0.892;2023-03-01T00:58:58;102506.70;;;5.21;96.57
62928;BME280;51070;52.236;-0.892;2023-03-01T01:01:24;102506.86;;;5.18;96.63
62928;BME280;51070;52.236;-0.892;2023-03-01T01:03:56;102507.13;;;5.17;96.83
62928;BME280;51070;52.236;-0.892;2023-03-01T01:06:29;102512.85;;;5.18;97.02
62928;BME280;51070;52.236;-0.892;2023-03-01T01:08:55;102508.08;;;5.21;97.07
62928;BME280;51070;52.236;-0.892;2023-03-01T01:11:22;102506.34;;;5.23;96.98
62928;BME280;51070;52.236;-0.892;2023-03-01T01:13:47;102506.75;;;5.23;97.05
62928;BME280;51070;52.236;-0.892;2023-03-01T01:16:13;102505.40;;;5.25;97.36
62928;BME280;51070;52.236;-0.892;2023-03-01T01:18:39;102503.33;;;5.30;97.37
62928;BME280;51070;52.236;-0.892;2023-03-01T01:21:05;102500.31;;;5.33;97.39
62928;BME280;51070;52.236;-0.892;2023-03-01T01:23:31;102501.56;;;5.37;97.46
62928;BME280;51070;52.236;-0.892;2023-03-01T01:25:56;102497.91;;;5.39;97.26
62928;BME280;51070;52.236;-0.892;2023-03-01T01:28:21;102493.41;;;5.38;97.32
62928;BME280;51070;52.236;-0.892;2023-03-01T01:30:47;102488.52;;;5.37;97.22
62928;BME280;51070;52.236;-0.892;2023-03-01T01:33:12;102486.93;;;5.35;97.20
62928;BME280;51070;52.236;-0.892;2023-03-01T01:35:37;102487.92;;;5.32;97.24
62928;BME280;51070;52.236;-0.892;2023-03-01T01:38:03;102485.70;;;5.28;97.49
62928;BME280;51070;52.236;-0.892;2023-03-01T01:40:28;102482.43;;;5.26;97.71
62928;BME280;51070;52.236;-0.892;2023-03-01T01:42:53;102481.99;;;5.22;97.80
62928;BME280;51070;52.236;-0.892;2023-03-01T01:45:29;102480.83;;;5.21;97.87
62928;BME280;51070;52.236;-0.892;2023-03-01T01:47:56;102476.59;;;5.21;98.04
62928;BME280;51070;52.236;-0.892;2023-03-01T01:50:22;102477.39;;;5.22;98.14
62928;BME280;51070;52.236;-0.892;2023-03-01T01:52:47;102476.21;;;5.25;98.06
62928;BME280;51070;52.236;-0.892;2023-03-01T01:55:18;102472.05;;;5.26;98.13
62928;BME280;51070;52.236;-0.892;2023-03-01T01:57:47;102465.63;;;5.30;98.42
62928;BME280;51070;52.236;-0.892;2023-03-01T02:00:15;102459.71;;;5.33;98.26
62928;BME280;51070;52.236;-0.892;2023-03-01T02:02:41;102457.98;;;5.35;98.02
62928;BME280;51070;52.236;-0.892;2023-03-01T02:07:52;102452.34;;;5.37;98.01
62928;BME280;51070;52.236;-0.892;2023-03-01T02:10:17;102450.79;;;5.39;98.10
62928;BME280;51070;52.236;-0.892;2023-03-01T02:12:43;102448.61;;;5.40;97.95
62928;BME280;51070;52.236;-0.892;2023-03-01T02:15:09;102445.52;;;5.39;97.80
62928;BME280;51070;52.236;-0.892;2023-03-01T02:17:34;102445.21;;;5.38;97.82
62928;BME280;51070;52.236;-0.892;2023-03-01T02:22:38;102443.51;;;5.34;97.67
62928;BME280;51070;52.236;-0.892;2023-03-01T02:27:56;102443.41;;;5.26;97.85
62928;BME280;51070;52.236;-0.892;2023-03-01T02:30:23;102442.62;;;5.23;98.24
62928;BME280;51070;52.236;-0.892;2023-03-01T02:32:49;102444.09;;;5.20;98.51
62928;BME280;51070;52.236;-0.892;2023-03-01T02:35:16;102441.20;;;5.18;98.86
62928;BME280;51070;52.236;-0.892;2023-03-01T02:37:43;102438.59;;;5.17;99.15
62928;BME280;51070;52.236;-0.892;2023-03-01T02:40:10;102436.53;;;5.18;99.36
62928;BME280;51070;52.236;-0.892;2023-03-01T02:42:40;102437.86;;;5.20;99.60
62928;BME280;51070;52.236;-0.892;2023-03-01T02:45:09;102431.92;;;5.22;99.97
62928;BME280;51070;52.236;-0.892;2023-03-01T02:47:35;102433.04;;;5.27;100.00
62928;BME280;51070;52.236;-0.892;2023-03-01T02:50:01;102429.11;;;5.30;100.00
62928;BME280;51070;52.236;-0.892;2023-03-01T02:55:27;102423.59;;;5.31;99.93
62928;BME280;51070;52.236;-0.892;2023-03-01T02:57:52;102422.27;;;5.32;100.00
62928;BME280;51070;52.236;-0.892;2023-03-01T03:00:20;102415.17;;;5.31;100.00
62928;BME280;51070;52.236;-0.892;2023-03-01T03:02:46;102413.84;;;5.32;100.00
62928;BME280;51070;52.236;-0.892;2023-03-01T03:05:17;102411.04;;;5.31;100.00
62928;BME280;51070;52.236;-0.892;2023-03-01T03:07:43;102407.26;;;5.28;100.00
62928;BME280;51070;52.236;-0.892;2023-03-01T03:10:13;102399.77;;;5.25;100.00
62928;BME280;51070;52.236;-0.892;2023-03-01T03:12:39;102394.52;;;5.24;100.00
62928;BME280;51070;52.236;-0.892;2023-03-01T03:15:05;102393.82;;;5.23;100.00
62928;BME280;51070;52.236;-0.892;2023-03-01T03:17:34;102389.82;;;5.25;100.00
62928;BME280;51070;52.236;-0.892;2023-03-01T03:20:00;102383.80;;;5.27;100.00
62928;BME280;51070;52.236;-0.892;2023-03-01T03:22:25;102381.05;;;5.29;100.00
62928;BME280;51070;52.236;-0.892;2023-03-01T03:24:53;102376.75;;;5.29;100.00
62928;BME280;51070;52.236;-0.892;2023-03-01T03:27:19;102373.51;;;5.29;100.00
62928;BME280;51070;52.236;-0.892;2023-03-01T03:29:44;102368.08;;;5.30;100.00
62928;BME280;51070;52.236;-0.892;2023-03-01T03:32:09;102366.52;;;5.32;100.00
62928;BME280;51070;52.236;-0.892;2023-03-01T03:34:34;102364.95;;;5.33;100.00
62928;BME280;51070;52.236;-0.892;2023-03-01T03:37:00;102362.74;;;5.33;100.00
62928;BME280;51070;52.236;-0.892;2023-03-01T03:39:26;102358.73;;;5.35;100.00
62928;BME280;51070;52.236;-0.892;2023-03-01T03:41:54;102358.83;;;5.36;100.00
62928;BME280;51070;52.236;-0.892;2023-03-01T03:44:19;102361.09;;;5.34;100.00
62928;BME280;51070;52.236;-0.892;2023-03-01T03:46:45;102361.84;;;5.31;99.97
62928;BME280;51070;52.236;-0.892;2023-03-01T03:49:10;102356.66;;;5.26;99.87
62928;BME280;51070;52.236;-0.892;2023-03-01T03:51:36;102356.44;;;5.23;100.00
62928;BME280;51070;52.236;-0.892;2023-03-01T03:54:01;102352.57;;;5.22;100.00
62928;BME280;51070;52.236;-0.892;2023-03-01T03:56:26;102356.55;;;5.23;100.00
62928;BME280;51070;52.236;-0.892;2023-03-01T03:58:52;102360.44;;;5.24;100.00
62928;BME280;51070;52.236;-0.892;2023-03-01T04:01:17;102356.11;;;5.26;100.00
62928;BME280;51070;52.236;-0.892;2023-03-01T04:03:43;102359.38;;;5.26;100.00
62928;BME280;51070;52.236;-0.892;2023-03-01T04:06:12;102358.98;;;5.25;100.00
62928;BME280;51070;52.236;-0.892;2023-03-01T04:08:37;102363.85;;;5.26;99.84
62928;BME280;51070;52.236;-0.892;2023-03-01T04:11:03;102365.23;;;5.24;99.29
62928;BME280;51070;52.236;-0.892;2023-03-01T04:13:47;102361.34;;;5.22;99.20
62928;BME280;51070;52.236;-0.892;2023-03-01T04:16:13;102360.90;;;5.21;98.93
62928;BME280;51070;52.236;-0.892;2023-03-01T04:18:38;102358.33;;;5.19;98.75
62928;BME280;51070;52.236;-0.892;2023-03-01T04:21:04;102354.10;;;5.18;98.80
62928;BME280;51070;52.236;-0.892;2023-03-01T04:23:29;102347.23;;;5.13;98.48
62928;BME280;51070;52.236;-0.892;2023-03-01T04:25:55;102345.57;;;5.10;98.36
62928;BME280;51070;52.236;-0.892;2023-03-01T04:28:22;102346.95;;;5.07;98.77
62928;BME280;51070;52.236;-0.892;2023-03-01T04:30:50;102344.42;;;5.06;98.63
62928;BME280;51070;52.236;-0.892;2023-03-01T04:33:15;102342.71;;;5.04;98.61
62928;BME280;51070;52.236;-0.892;2023-03-01T04:35:40;102347.71;;;5.02;98.65
62928;BME280;51070;52.236;-0.892;2023-03-01T04:38:06;102348.97;;;5.00;98.69
62928;BME280;51070;52.236;-0.892;2023-03-01T04:40:32;102349.17;;;5.01;98.69
62928;BME280;51070;52.236;-0.892;2023-03-01T04:42:58;102342.09;;;5.02;98.90
62928;BME280;51070;52.236;-0.892;2023-03-01T04:45:23;102337.21;;;5.04;98.74
62928;BME280;51070;52.236;-0.892;2023-03-01T04:47:48;102335.83;;;5.05;98.98
62928;BME280;51070;52.236;-0.892;2023-03-01T04:50:15;102334.49;;;5.06;98.69
62928;BME280;51070;52.236;-0.892;2023-03-01T04:52:42;102332.67;;;5.04;98.75
62928;BME280;51070;52.236;-0.892;2023-03-01T04:55:08;102327.16;;;5.02;98.48
62928;BME280;51070;52.236;-0.892;2023-03-01T04:57:34;102323.85;;;4.99;98.63
62928;BME280;51070;52.236;-0.892;2023-03-01T04:59:59;102324.04;;;4.97;98.76
62928;BME280;51070;52.236;-0.892;2023-03-01T05:02:24;102325.30;;;4.96;98.60
62928;BME280;51070;52.236;-0.892;2023-03-01T05:04:50;102324.04;;;4.95;98.45
62928;BME280;51070;52.236;-0.892;2023-03-01T05:07:15;102325.06;;;4.95;98.83
62928;BME280;51070;52.236;-0.892;2023-03-01T05:09:47;102328.77;;;4.97;98.90
62928;BME280;51070;52.236;-0.892;2023-03-01T05:12:12;102323.29;;;4.97;98.81
62928;BME280;51070;52.236;-0.892;2023-03-01T05:14:38;102322.48;;;4.97;98.89
62928;BME280;51070;52.236;-0.892;2023-03-01T05:17:04;102319.52;;;4.99;99.03
62928;BME280;51070;52.236;-0.892;2023-03-01T05:19:30;102321.08;;;5.01;99.51
62928;BME280;51070;52.236;-0.892;2023-03-01T05:21:56;102313.16;;;5.05;99.53
62928;BME280;51070;52.236;-0.892;2023-03-01T05:24:29;102309.48;;;5.04;99.04
62928;BME280;51070;52.236;-0.892;2023-03-01T05:26:55;102308.92;;;5.01;98.96
62928;BME280;51070;52.236;-0.892;2023-03-01T05:29:20;102310.56;;;4.98;98.98
62928;BME280;51070;52.236;-0.892;2023-03-01T05:31:51;102308.36;;;4.96;98.83
62928;BME280;51070;52.236;-0.892;2023-03-01T05:34:17;102309.10;;;4.95;99.09
62928;BME280;51070;52.236;-0.892;2023-03-01T05:36:42;102307.96;;;4.94;99.28
62928;BME280;51070;52.236;-0.892;2023-03-01T05:39:07;102307.42;;;4.93;99.33
62928;BME280;51070;52.236;-0.892;2023-03-01T05:41:33;102305.47;;;4.92;99.33
62928;BME280;51070;52.236;-0.892;2023-03-01T05:43:58;102302.70;;;4.92;99.41
62928;BME280;51070;52.236;-0.892;2023-03-01T05:46:23;102304.65;;;4.90;99.60
62928;BME280;51070;52.236;-0.892;2023-03-01T05:48:49;102305.45;;;4.90;99.76
62928;BME280;51070;52.236;-0.892;2023-03-01T05:51:14;102305.45;;;4.88;99.69
62928;BME280;51070;52.236;-0.892;2023-03-01T05:53:40;102309.48;;;4.87;99.78
62928;BME280;51070;52.236;-0.892;2023-03-01T05:56:05;102306.39;;;4.87;99.79
62928;BME280;51070;52.236;-0.892;2023-03-01T05:58:31;102302.63;;;4.87;99.98
62928;BME280;51070;52.236;-0.892;2023-03-01T06:00:56;102299.91;;;4.87;99.89
62928;BME280;51070;52.236;-0.892;2023-03-01T06:03:21;102305.45;;;4.88;100.00
62928;BME280;51070;52.236;-0.892;2023-03-01T06:05:47;102306.94;;;4.89;100.00
62928;BME280;51070;52.236;-0.892;2023-03-01T06:08:12;102306.30;;;4.90;99.99
62928;BME280;51070;52.236;-0.892;2023-03-01T06:10:38;102304.39;;;4.90;100.00
62928;BME280;51070;52.236;-0.892;2023-03-01T06:13:04;102305.15;;;4.91;99.99
62928;BME280;51070;52.236;-0.892;2023-03-01T06:15:29;102304.27;;;4.92;100.00
62928;BME280;51070;52.236;-0.892;2023-03-01T06:17:55;102306.70;;;4.95;100.00
62928;BME280;51070;52.236;-0.892;2023-03-01T06:20:25;102306.69;;;4.97;99.98
62928;BME280;51070;52.236;-0.892;2023-03-01T06:22:50;102304.91;;;4.98;99.89
62928;BME280;51070;52.236;-0.892;2023-03-01T06:25:17;102308.10;;;4.99;100.00
62928;BME280;51070;52.236;-0.892;2023-03-01T06:27:43;102310.25;;;5.01;99.91
62928;BME280;51070;52.236;-0.892;2023-03-01T06:30:09;102309.33;;;5.00;99.91
62928;BME280;51070;52.236;-0.892;2023-03-01T06:32:36;102305.80;;;4.99;99.89
62928;BME280;51070;52.236;-0.892;2023-03-01T06:35:02;102309.42;;;4.97;99.86
62928;BME280;51070;52.236;-0.892;2023-03-01T06:37:28;102311.66;;;4.93;99.94
62928;BME280;51070;52.236;-0.892;2023-03-01T06:39:53;102311.10;;;4.90;99.84
62928;BME280;51070;52.236;-0.892;2023-03-01T06:42:18;102313.30;;;4.88;99.58
62928;BME280;51070;52.236;-0.892;2023-03-01T06:44:44;102311.79;;;4.86;99.63
62928;BME280;51070;52.236;-0.892;2023-03-01T06:47:09;102315.31;;;4.85;99.47
62928;BME280;51070;52.236;-0.892;2023-03-01T06:49:34;102318.77;;;4.85;99.51
62928;BME280;51070;52.236;-0.892;2023-03-01T06:52:00;102314.02;;;4.86;99.43
62928;BME280;51070;52.236;-0.892;2023-03-01T06:54:25;102315.95;;;4.89;99.47
62928;BME280;51070;52.236;-0.892;2023-03-01T06:56:50;102315.80;;;4.91;99.47
62928;BME280;51070;52.236;-0.892;2023-03-01T06:59:16;102317.14;;;4.92;99.42
62928;BME280;51070;52.236;-0.892;2023-03-01T07:01:41;102322.52;;;4.93;99.15
62928;BME280;51070;52.236;-0.892;2023-03-01T07:04:07;102326.63;;;4.93;99.34
62928;BME280;51070;52.236;-0.892;2023-03-01T07:06:32;102323.83;;;4.95;99.37
62928;BME280;51070;52.236;-0.892;2023-03-01T07:08:58;102330.66;;;4.95;99.37
62928;BME280;51070;52.236;-0.892;2023-03-01T07:11:23;102336.34;;;4.95;99.45
62928;BME280;51070;52.236;-0.892;2023-03-01T07:13:49;102333.36;;;4.94;99.21
62928;BME280;51070;52.236;-0.892;2023-03-01T07:16:14;102330.59;;;4.94;99.37
62928;BME280;51070;52.236;-0.892;2023-03-01T07:18:40;102326.67;;;4.92;99.45
62928;BME280;51070;52.236;-0.892;2023-03-01T07:21:06;102319.66;;;4.94;99.39
62928;BME280;51070;52.236;-0.892;2023-03-01T07:23:31;102319.40;;;5.00;99.37
62928;BME280;51070;52.236;-0.892;2023-03-01T07:25:56;102313.55;;;5.05;99.23
62928;BME280;51070;52.236;-0.892;2023-03-01T07:28:22;102308.84;;;5.06;99.39
62928;BME280;51070;52.236;-0.892;2023-03-01T07:30:48;102308.30;;;5.13;99.48
62928;BME280;51070;52.236;-0.892;2023-03-01T07:33:13;102302.95;;;5.17;99.14
62928;BME280;51070;52.236;-0.892;2023-03-01T07:35:38;102305.63;;;5.20;99.22
62928;BME280;51070;52.236;-0.892;2023-03-01T07:38:04;102311.30;;;5.27;99.17
62928;BME280;51070;52.236;-0.892;2023-03-01T07:40:29;102310.65;;;5.34;99.14
62928;BME280;51070;52.236;-0.892;2023-03-01T07:42:55;102315.40;;;5.40;99.02
62928;BME280;51070;52.236;-0.892;2023-03-01T07:45:20;102314.56;;;5.42;98.66
62928;BME280;51070;52.236;-0.892;2023-03-01T07:47:45;102316.46;;;5.42;98.62
62928;BME280;51070;52.236;-0.892;2023-03-01T07:50:10;102313.56;;;5.42;98.42
62928;BME280;51070;52.236;-0.892;2023-03-01T07:52:36;102310.95;;;5.44;98.29
62928;BME280;51070;52.236;-0.892;2023-03-01T07:55:01;102311.52;;;5.49;98.18
62928;BME280;51070;52.236;-0.892;2023-03-01T07:57:26;102314.96;;;5.52;97.99
62928;BME280;51070;52.236;-0.892;2023-03-01T07:59:52;102318.33;;;5.55;98.05
62928;BME280;51070;52.236;-0.892;2023-03-01T08:02:17;102314.88;;;5.59;97.99
62928;BME280;51070;52.236;-0.892;2023-03-01T08:04:42;102314.41;;;5.60;98.35
62928;BME280;51070;52.236;-0.892;2023-03-01T08:07:08;102317.15;;;5.62;98.71
62928;BME280;51070;52.236;-0.892;2023-03-01T08:09:36;102320.17;;;5.64;98.73
62928;BME280;51070;52.236;-0.892;2023-03-01T08:12:03;102324.95;;;5.66;98.72
62928;BME280;51070;52.236;-0.892;2023-03-01T08:14:29;102328.36;;;5.65;98.76
62928;BME280;51070;52.236;-0.892;2023-03-01T08:16:55;102327.71;;;5.68;98.80
62928;BME280;51070;52.236;-0.892;2023-03-01T08:19:20;102322.54;;;5.70;98.79
62928;BME280;51070;52.236;-0.892;2023-03-01T08:21:46;102320.22;;;5.69;98.71
62928;BME280;51070;52.236;-0.892;2023-03-01T08:24:11;102321.23;;;5.66;98.59
62928;BME280;51070;52.236;-0.892;2023-03-01T08:26:36;102318.86;;;5.69;98.71
62928;BME280;51070;52.236;-0.892;2023-03-01T08:29:02;102317.45;;;5.73;98.73
62928;BME280;51070;52.236;-0.892;2023-03-01T08:31:29;102318.23;;;5.78;98.50
62928;BME280;51070;52.236;-0.892;2023-03-01T08:33:56;102316.31;;;5.82;98.49
62928;BME280;51070;52.236;-0.892;2023-03-01T08:36:23;102316.45;;;5.86;98.55
62928;BME280;51070;52.236;-0.892;2023-03-01T08:38:52;102312.77;;;5.89;98.36
62928;BME280;51070;52.236;-0.892;2023-03-01T08:41:17;102307.05;;;6.00;98.28
62928;BME280;51070;52.236;-0.892;2023-03-01T08:43:43;102306.17;;;6.16;97.86
62928;BME280;51070;52.236;-0.892;2023-03-01T08:46:09;102305.06;;;6.28;97.35
62928;BME280;51070;52.236;-0.892;2023-03-01T08:48:34;102306.40;;;6.32;96.76
62928;BME280;51070;52.236;-0.892;2023-03-01T08:51:18;102304.60;;;6.34;96.44
62928;BME280;51070;52.236;-0.892;2023-03-01T08:53:44;102303.06;;;6.36;96.05
62928;BME280;51070;52.236;-0.892;2023-03-01T08:56:10;102304.44;;;6.45;95.72
62928;BME280;51070;52.236;-0.892;2023-03-01T08:58:35;102299.41;;;6.66;95.00
62928;BME280;51070;52.236;-0.892;2023-03-01T09:01:06;102300.05;;;6.77;94.27
62928;BME280;51070;52.236;-0.892;2023-03-01T09:03:31;102295.40;;;6.86;94.04
62928;BME280;51070;52.236;-0.892;2023-03-01T09:05:59;102287.89;;;6.92;93.50
62928;BME280;51070;52.236;-0.892;2023-03-01T09:08:24;102285.99;;;7.03;92.65
62928;BME280;51070;52.236;-0.892;2023-03-01T09:10:50;102290.14;;;7.06;91.88
62928;BME280;51070;52.236;-0.892;2023-03-01T09:13:15;102284.30;;;7.08;92.30
62928;BME280;51070;52.236;-0.892;2023-03-01T09:15:40;102279.21;;;7.34;92.06
62928;BME280;51070;52.236;-0.892;2023-03-01T09:18:06;102277.23;;;7.63;91.30
62928;BME280;51070;52.236;-0.892;2023-03-01T09:20:31;102277.75;;;7.73;91.18
62928;BME280;51070;52.236;-0.892;2023-03-01T09:22:57;102281.04;;;7.83;91.14
62928;BME280;51070;52.236;-0.892;2023-03-01T09:25:23;102277.63;;;8.04;90.01
62928;BME280;51070;52.236;-0.892;2023-03-01T09:27:51;102274.75;;;8.12;88.67
62928;BME280;51070;52.236;-0.892;2023-03-01T09:30:17;102272.30;;;8.04;88.20
62928;BME280;51070;52.236;-0.892;2023-03-01T09:32:43;102274.09;;;7.99;88.62
62928;BME280;51070;52.236;-0.892;2023-03-01T09:35:10;102268.58;;;7.94;88.46
62928;BME280;51070;52.236;-0.892;2023-03-01T09:37:35;102273.77;;;7.80;88.49
62928;BME280;51070;52.236;-0.892;2023-03-01T09:40:01;102268.20;;;7.61;88.47
62928;BME280;51070;52.236;-0.892;2023-03-01T09:42:30;102263.06;;;7.52;88.73
62928;BME280;51070;52.236;-0.892;2023-03-01T09:47:51;102258.56;;;7.77;89.21
62928;BME280;51070;52.236;-0.892;2023-03-01T09:50:18;102257.00;;;7.81;89.05
62928;BME280;51070;52.236;-0.892;2023-03-01T09:55:14;102260.96;;;7.76;89.74
62928;BME280;51070;52.236;-0.892;2023-03-01T10:02:51;102247.96;;;7.70;89.52
62928;BME280;51070;52.236;-0.892;2023-03-01T10:10:46;102229.23;;;8.04;88.90
62928;BME280;51070;52.236;-0.892;2023-03-01T10:15:52;102228.06;;;7.83;87.87
62928;BME280;51070;52.236;-0.892;2023-03-01T10:18:30;102228.27;;;7.74;88.05
62928;BME280;51070;52.236;-0.892;2023-03-01T10:21:19;102225.27;;;7.70;87.88
62928;BME280;51070;52.236;-0.892;2023-03-01T10:23:44;102222.21;;;7.73;88.20
62928;BME280;51070;52.236;-0.892;2023-03-01T10:31:02;102224.17;;;7.97;86.41
62928;BME280;51070;52.236;-0.892;2023-03-01T10:33:37;102219.12;;;7.96;86.24
62928;BME280;51070;52.236;-0.892;2023-03-01T10:36:05;102214.46;;;8.07;85.53
62928;BME280;51070;52.236;-0.892;2023-03-01T10:38:31;102211.74;;;8.65;83.92
62928;BME280;51070;52.236;-0.892;2023-03-01T10:41:11;102214.54;;;9.26;82.05
62928;BME280;51070;52.236;-0.892;2023-03-01T10:46:35;102208.75;;;9.71;79.14
62928;BME280;51070;52.236;-0.892;2023-03-01T10:51:32;102206.59;;;9.84;77.72
62928;BME280;51070;52.236;-0.892;2023-03-01T10:53:58;102205.71;;;9.75;77.20
62928;BME280;51070;52.236;-0.892;2023-03-01T10:56:23;102205.27;;;9.79;77.43
62928;BME280;51070;52.236;-0.892;2023-03-01T11:01:25;102195.91;;;9.87;77.04
62928;BME280;51070;52.236;-0.892;2023-03-01T11:04:07;102203.94;;;9.68;77.06
62928;BME280;51070;52.236;-0.892;2023-03-01T11:06:35;102206.55;;;9.48;77.93
62928;BME280;51070;52.236;-0.892;2023-03-01T11:09:20;102205.90;;;9.23;79.19
62928;BME280;51070;52.236;-0.892;2023-03-01T11:11:51;102204.42;;;8.91;80.40
62928;BME280;51070;52.236;-0.892;2023-03-01T11:14:19;102203.09;;;8.62;81.34
62928;BME280;51070;52.236;-0.892;2023-03-01T11:16:45;102200.16;;;8.37;82.36
62928;BME280;51070;52.236;-0.892;2023-03-01T11:24:24;102191.46;;;8.03;84.32
62928;BME280;51070;52.236;-0.892;2023-03-01T11:26:52;102190.28;;;8.00;85.10
62928;BME280;51070;52.236;-0.892;2023-03-01T11:29:37;102186.74;;;8.15;85.39
62928;BME280;51070;52.236;-0.892;2023-03-01T11:32:05;102180.01;;;8.30;86.22
62928;BME280;51070;52.236;-0.892;2023-03-01T11:34:36;102171.64;;;8.41;85.75
62928;BME280;51070;52.236;-0.892;2023-03-01T11:37:03;102167.44;;;8.62;85.54
62928;BME280;51070;52.236;-0.892;2023-03-01T11:39:38;102167.98;;;8.90;85.80
62928;BME280;51070;52.236;-0.892;2023-03-01T11:42:12;102167.55;;;9.06;84.83
62928;BME280;51070;52.236;-0.892;2023-03-01T11:44:38;102163.69;;;9.15;84.76
62928;BME280;51070;52.236;-0.892;2023-03-01T11:52:33;102152.87;;;9.05;79.93
62928;BME280;51070;52.236;-0.892;2023-03-01T12:00:30;102144.49;;;9.20;79.07
62928;BME280;51070;52.236;-0.892;2023-03-01T12:15:42;102114.42;;;9.75;77.32
62928;BME280;51070;52.236;-0.892;2023-03-01T12:33:38;102078.08;;;9.46;81.58
62928;BME280;51070;52.236;-0.892;2023-03-01T12:41:22;102079.13;;;8.83;82.96
62928;BME280;51070;52.236;-0.892;2023-03-01T12:49:25;102075.85;;;8.80;83.92
62928;BME280;51070;52.236;-0.892;2023-03-01T12:52:02;102069.17;;;8.93;83.74
62928;BME280;51070;52.236;-0.892;2023-03-01T12:54:32;102063.86;;;9.01;82.85
62928;BME280;51070;52.236;-0.892;2023-03-01T12:57:00;102059.86;;;9.21;82.45
62928;BME280;51070;52.236;-0.892;2023-03-01T12:59:39;102048.63;;;9.42;82.10
62928;BME280;51070;52.236;-0.892;2023-03-01T13:02:31;102048.67;;;9.42;80.91
62928;BME280;51070;52.236;-0.892;2023-03-01T13:07:41;102042.23;;;9.75;80.77
62928;BME280;51070;52.236;-0.892;2023-03-01T13:10:17;102038.36;;;9.70;78.99
62928;BME280;51070;52.236;-0.892;2023-03-01T13:12:47;102030.91;;;9.67;79.09
62928;BME280;51070;52.236;-0.892;2023-03-01T13:17:49;102017.70;;;9.56;78.72
62928;BME280;51070;52.236;-0.892;2023-03-01T13:20:18;102012.91;;;9.47;78.39
62928;BME280;51070;52.236;-0.892;2023-03-01T13:22:45;102006.56;;;9.39;78.30
62928;BME280;51070;52.236;-0.892;2023-03-01T13:25:18;102004.35;;;9.46;78.62
62928;BME280;51070;52.236;-0.892;2023-03-01T13:27:45;101998.67;;;9.67;78.29
62928;BME280;51070;52.236;-0.892;2023-03-01T13:33:14;101988.63;;;9.92;76.50
62928;BME280;51070;52.236;-0.892;2023-03-01T13:35:41;101984.02;;;9.83;75.60
62928;BME280;51070;52.236;-0.892;2023-03-01T13:43:26;101975.68;;;9.66;75.80
62928;BME280;51070;52.236;-0.892;2023-03-01T13:45:52;101973.29;;;9.70;75.30
62928;BME280;51070;52.236;-0.892;2023-03-01T13:48:25;101969.49;;;9.74;74.98
62928;BME280;51070;52.236;-0.892;2023-03-01T13:50:57;101963.41;;;9.70;74.91
62928;BME280;51070;52.236;-0.892;2023-03-01T13:53:24;101959.98;;;9.60;75.38
62928;BME280;51070;52.236;-0.892;2023-03-01T13:55:51;101962.74;;;9.49;75.72
62928;BME280;51070;52.236;-0.892;2023-03-01T13:58:23;101968.46;;;9.37;75.59
62928;BME280;51070;52.236;-0.892;2023-03-01T14:00:57;101963.73;;;9.26;75.48
62928;BME280;51070;52.236;-0.892;2023-03-01T14:03:23;101959.80;;;9.24;75.21
62928;BME280;51070;52.236;-0.892;2023-03-01T14:06:02;101960.34;;;9.27;75.06
62928;BME280;51070;52.236;-0.892;2023-03-01T14:08:29;101958.98;;;9.24;75.69
62928;BME280;51070;52.236;-0.892;2023-03-01T14:16:12;101953.04;;;8.96;78.07
62928;BME280;51070;52.236;-0.892;2023-03-01T14:18:52;101944.73;;;8.93;78.80
62928;BME280;51070;52.236;-0.892;2023-03-01T14:21:20;101942.50;;;9.02;79.08
62928;BME280;51070;52.236;-0.892;2023-03-01T14:23:47;101935.45;;;9.11;79.28
62928;BME280;51070;52.236;-0.892;2023-03-01T14:26:13;101931.35;;;9.09;79.01
62928;BME280;51070;52.236;-0.892;2023-03-01T14:28:38;101930.79;;;9.02;79.39
62928;BME280;51070;52.236;-0.892;2023-03-01T14:31:29;101934.27;;;8.88;78.89
62928;BME280;51070;52.236;-0.892;2023-03-01T14:33:56;101928.87;;;8.66;79.76
62928;BME280;51070;52.236;-0.892;2023-03-01T14:36:25;101923.41;;;8.59;80.78
62928;BME280;51070;52.236;-0.892;2023-03-01T14:38:51;101925.05;;;8.57;81.17
62928;BME280;51070;52.236;-0.892;2023-03-01T14:41:23;101922.55;;;8.53;82.08
62928;BME280;51070;52.236;-0.892;2023-03-01T14:43:55;101916.91;;;8.49;82.65